Time;durP1;ratioP1;P1;durP2;ratioP2;P2;SDS_P1;SDS_P2;PMS_P1;PMS_P2;Temp;Humidity;BMP_temperature;BMP_pressure;BME280_temperature;BME280_humidity;BME280_pressure;Samples;Min_cycle;Max_cycle;Signal;HPM_P1;HPM_P2
2022/02/08 00:01:20;;;;;;;4.32;2.22;;;1.30;99.90;;;;;;4928763;29;20024;-78
2022/02/08 00:03:46;;;;;;;5.63;1.92;;;1.50;99.90;;;;;;4933290;29;20020;-78
2022/02/08 00:06:29;;;;;;;10.00;3.85;;;1.50;99.90;;;;;;4932204;29;20054;-78
2022/02/08 00:08:55;;;;;;;6.75;2.45;;;1.50;99.90;;;;;;4930106;29;20023;-78
2022/02/08 00:11:21;;;;;;;7.60;3.13;;;1.50;99.90;;;;;;4935641;29;20050;-78
2022/02/08 00:13:46;;;;;;;7.07;3.38;;;1.50;99.90;;;;;;4934985;29;20441;-78
2022/02/08 00:16:12;;;;;;;6.53;2.72;;;1.40;99.90;;;;;;4934567;29;20564;-77
2022/02/08 00:18:38;;;;;;;4.80;2.35;;;1.50;99.90;;;;;;4936573;29;20087;-78
2022/02/08 00:21:04;;;;;;;7.10;2.90;;;1.60;99.90;;;;;;4931748;29;20020;-78
2022/02/08 00:23:29;;;;;;;4.57;2.22;;;1.70;99.90;;;;;;4930474;29;20075;-77
2022/02/08 00:25:55;;;;;;;7.60;2.40;;;1.70;99.90;;;;;;4936483;29;20034;-78
2022/02/08 00:28:20;;;;;;;6.03;2.67;;;1.80;99.90;;;;;;4928983;29;20040;-78
2022/02/08 00:30:46;;;;;;;7.47;1.98;;;1.80;99.90;;;;;;4923972;29;20050;-78
2022/02/08 00:33:11;;;;;;;11.68;2.78;;;1.90;99.90;;;;;;4932222;29;20031;-77
2022/02/08 00:35:37;;;;;;;8.15;2.53;;;2.00;99.90;;;;;;4934938;29;20027;-76
2022/02/08 00:38:02;;;;;;;6.75;2.63;;;2.00;99.90;;;;;;4932078;29;20087;-77
2022/02/08 00:40:28;;;;;;;5.82;2.85;;;2.10;99.90;;;;;;4935626;29;20027;-78
2022/02/08 00:42:55;;;;;;;7.32;3.10;;;2.20;99.90;;;;;;4943583;29;20024;-77
2022/02/08 00:47:54;;;;;;;6.00;2.40;;;2.30;99.90;;;;;;4947147;29;20378;-76
2022/02/08 00:50:20;;;;;;;8.75;2.97;;;2.30;99.90;;;;;;4944724;29;20171;-78
2022/02/08 00:52:45;;;;;;;6.28;2.15;;;2.30;99.90;;;;;;4946177;29;20020;-77
2022/02/08 00:55:13;;;;;;;7.10;3.17;;;2.30;99.90;;;;;;4945515;29;20035;-77
2022/02/08 00:57:38;;;;;;;5.18;2.15;;;2.40;99.90;;;;;;4941425;29;20059;-77
2022/02/08 01:00:06;;;;;;;9.63;2.55;;;2.40;99.90;;;;;;4950097;29;20043;-77
2022/02/08 01:02:32;;;;;;;9.93;3.42;;;2.60;99.90;;;;;;4940481;29;20024;-77
2022/02/08 01:05:00;;;;;;;8.20;3.15;;;2.60;99.90;;;;;;4933687;29;20489;-77
2022/02/08 01:07:27;;;;;;;5.15;2.63;;;2.70;99.90;;;;;;4932901;29;20103;-77
2022/02/08 01:09:57;;;;;;;9.48;3.15;;;2.70;99.90;;;;;;4932776;29;20034;-76
2022/02/08 01:12:24;;;;;;;4.75;1.60;;;2.70;99.90;;;;;;4943990;29;20178;-77
2022/02/08 01:14:52;;;;;;;7.35;1.92;;;2.70;99.90;;;;;;4940400;29;20359;-77
2022/02/08 01:17:20;;;;;;;4.80;2.10;;;2.70;99.90;;;;;;4930172;29;20028;-77
2022/02/08 01:19:57;;;;;;;6.50;2.05;;;2.70;99.90;;;;;;4932072;29;20113;-77
2022/02/08 01:22:23;;;;;;;6.00;1.40;;;2.80;99.90;;;;;;4936187;29;20426;-77
2022/02/08 01:24:50;;;;;;;4.13;2.15;;;2.80;99.90;;;;;;4939963;29;20079;-76
2022/02/08 01:27:17;;;;;;;4.82;2.10;;;2.70;99.90;;;;;;4936282;29;20075;-76
2022/02/08 01:32:49;;;;;;;5.88;1.67;;;2.70;99.90;;;;;;4928286;29;20054;-78
2022/02/08 01:37:53;;;;;;;6.50;2.10;;;2.70;99.90;;;;;;4935788;29;20067;-79
2022/02/08 01:40:49;;;;;;;5.82;1.67;;;2.80;99.90;;;;;;4933004;29;20392;-77
2022/02/08 01:48:50;;;;;;;4.35;1.35;;;3.00;99.90;;;;;;4934931;29;20028;-76
2022/02/08 01:51:16;;;;;;;4.22;1.13;;;3.10;99.90;;;;;;4930313;29;20028;-76
2022/02/08 01:53:42;;;;;;;3.38;1.40;;;3.10;99.90;;;;;;4935013;29;20033;-76
2022/02/08 01:56:08;;;;;;;5.13;1.50;;;3.10;99.90;;;;;;4933846;29;20024;-78
2022/02/08 01:58:33;;;;;;;3.70;1.35;;;3.20;99.90;;;;;;4938556;29;20030;-78
2022/02/08 02:00:59;;;;;;;4.78;1.65;;;3.30;99.90;;;;;;4936721;29;20060;-77
2022/02/08 02:03:25;;;;;;;8.73;2.05;;;3.30;99.90;;;;;;4934910;29;20019;-77
2022/02/08 02:05:52;;;;;;;6.40;1.42;;;3.20;99.90;;;;;;4935591;29;20079;-78
2022/02/08 02:08:19;;;;;;;6.22;1.60;;;3.30;99.90;;;;;;4936894;29;20097;-77
2022/02/08 02:10:45;;;;;;;4.97;2.00;;;3.30;99.90;;;;;;4937819;29;20111;-78
2022/02/08 02:13:24;;;;;;;4.20;1.65;;;3.30;99.90;;;;;;4937124;29;20059;-78
2022/02/08 02:15:50;;;;;;;8.90;1.83;;;3.30;99.90;;;;;;4928740;29;20120;-77
2022/02/08 02:18:15;;;;;;;6.65;2.25;;;3.30;99.90;;;;;;4936885;29;20469;-77
2022/02/08 02:20:41;;;;;;;4.25;1.60;;;3.30;99.90;;;;;;4937178;29;20031;-78
2022/02/08 02:23:06;;;;;;;6.90;1.73;;;3.30;99.90;;;;;;4937938;29;20163;-77
2022/02/08 02:25:33;;;;;;;5.57;2.42;;;3.40;99.90;;;;;;4932080;29;20111;-77
2022/02/08 02:28:02;;;;;;;3.25;1.15;;;3.40;99.90;;;;;;4938507;29;20078;-77
2022/02/08 02:30:31;;;;;;;5.40;1.48;;;3.40;99.90;;;;;;4935877;29;20031;-78
2022/02/08 02:32:59;;;;;;;6.32;1.40;;;3.40;99.90;;;;;;4936325;29;20512;-78
2022/02/08 02:35:26;;;;;;;6.97;1.65;;;3.40;99.90;;;;;;4936524;29;20064;-77
2022/02/08 02:37:54;;;;;;;4.95;1.42;;;3.40;99.90;;;;;;4938091;29;20445;-76
2022/02/08 02:40:22;;;;;;;5.03;1.38;;;3.40;99.90;;;;;;4942832;28;20027;-78
2022/02/08 02:42:52;;;;;;;4.10;1.10;;;3.40;99.90;;;;;;4934998;29;20019;-77
2022/02/08 02:45:20;;;;;;;7.65;2.00;;;3.40;99.90;;;;;;4934472;29;20099;-77
2022/02/08 02:47:47;;;;;;;7.03;3.35;;;3.40;99.90;;;;;;4934576;29;20107;-77
2022/02/08 02:50:12;;;;;;;4.97;1.40;;;3.40;99.90;;;;;;4931763;29;20491;-77
2022/02/08 02:52:38;;;;;;;5.28;1.52;;;3.30;99.90;;;;;;4938199;29;20031;-78
2022/02/08 02:55:04;;;;;;;5.22;1.85;;;3.30;99.90;;;;;;4938360;29;20028;-78
2022/02/08 02:57:30;;;;;;;5.13;1.85;;;3.40;99.90;;;;;;4944832;29;20020;-77
2022/02/08 03:00:09;;;;;;;5.18;1.40;;;3.40;99.90;;;;;;4945392;29;20031;-78
2022/02/08 03:02:42;;;;;;;5.25;2.40;;;3.40;99.90;;;;;;4938996;29;20024;-77
2022/02/08 03:05:28;;;;;;;3.97;1.60;;;3.50;99.90;;;;;;4938992;29;20421;-78
2022/02/08 03:18:50;;;;;;;4.78;1.45;;;3.80;99.90;;;;;;4935667;29;20046;-77
2022/02/08 03:21:17;;;;;;;7.00;1.58;;;3.90;99.90;;;;;;4935140;29;20019;-78
2022/02/08 03:23:43;;;;;;;5.18;1.63;;;3.90;99.90;;;;;;4935442;29;20031;-78
2022/02/08 03:26:09;;;;;;;5.72;1.52;;;3.90;99.90;;;;;;4935908;29;20432;-79
2022/02/08 03:28:35;;;;;;;5.55;1.83;;;3.90;99.90;;;;;;4936902;29;20024;-77
2022/02/08 03:31:01;;;;;;;4.72;2.63;;;3.80;99.90;;;;;;4934566;29;20040;-78
2022/02/08 03:33:27;;;;;;;6.28;1.75;;;3.80;99.90;;;;;;4933663;29;20122;-77
2022/02/08 03:35:55;;;;;;;4.63;1.40;;;3.80;99.90;;;;;;4936418;29;20028;-77
2022/02/08 03:38:39;;;;;;;7.65;2.08;;;3.80;99.90;;;;;;4932427;29;20031;-78
2022/02/08 03:41:10;;;;;;;4.63;1.50;;;3.80;99.90;;;;;;4932355;29;20019;-78
2022/02/08 03:43:39;;;;;;;4.43;1.13;;;3.80;99.90;;;;;;4935056;29;20048;-77
2022/02/08 03:46:10;;;;;;;10.10;1.98;;;3.70;99.90;;;;;;4933560;29;20032;-77
2022/02/08 03:48:38;;;;;;;5.28;1.75;;;3.60;99.90;;;;;;4935591;29;20024;-77
2022/02/08 03:51:09;;;;;;;4.13;1.55;;;3.60;99.90;;;;;;4936648;29;20036;-77
2022/02/08 03:53:36;;;;;;;4.55;2.10;;;3.60;99.90;;;;;;4932411;29;20036;-77
2022/02/08 03:56:03;;;;;;;3.00;1.15;;;3.60;99.90;;;;;;4937422;29;20186;-78
2022/02/08 03:58:29;;;;;;;5.78;1.83;;;3.70;99.90;;;;;;4935056;29;20031;-77
2022/02/08 04:03:49;;;;;;;5.47;1.52;;;3.70;99.90;;;;;;4934598;29;20038;-78
2022/02/08 04:06:14;;;;;;;5.20;2.30;;;3.70;99.90;;;;;;4937632;29;20055;-78
2022/02/08 04:08:40;;;;;;;4.03;1.35;;;3.70;99.90;;;;;;4929527;29;20073;-78
2022/02/08 04:11:08;;;;;;;5.55;2.03;;;3.70;99.90;;;;;;4934594;29;20036;-77
2022/02/08 04:13:45;;;;;;;2.65;1.40;;;3.70;99.90;;;;;;4933600;29;20028;-77
2022/02/08 04:16:34;;;;;;;5.45;1.40;;;3.70;99.90;;;;;;4930399;29;20024;-78
2022/02/08 04:32:45;;;;;;;3.72;1.98;;;3.80;99.90;;;;;;4934345;29;20110;-78
2022/02/08 04:38:01;;;;;;;7.13;1.50;;;3.90;99.90;;;;;;4934359;29;20279;-77
2022/02/08 04:48:45;;;;;;;3.60;1.25;;;3.70;99.90;;;;;;4912471;29;20160;-77
2022/02/08 04:53:51;;;;;;;8.35;2.00;;;3.80;99.90;;;;;;4927242;29;20047;-78
2022/02/08 04:56:28;;;;;;;6.95;1.45;;;3.80;99.90;;;;;;4933998;29;20019;-79
2022/02/08 04:59:52;;;;;;;4.72;1.20;;;3.90;99.90;;;;;;4936047;29;20114;-78
2022/02/08 05:45:11;;;;;;;5.38;2.92;;;4.20;99.90;;;;;;4937647;29;20493;-79
2022/02/08 05:47:41;;;;;;;8.70;2.65;;;4.30;99.90;;;;;;4939645;29;20031;-78
2022/02/08 05:55:24;;;;;;;6.05;2.17;;;4.40;99.90;;;;;;4933816;29;20114;-77
2022/02/08 05:57:51;;;;;;;7.10;2.00;;;4.40;99.90;;;;;;4938048;29;20477;-77
2022/02/08 06:00:17;;;;;;;6.32;1.23;;;4.30;99.90;;;;;;4937281;29;20056;-77
2022/02/08 06:02:43;;;;;;;6.22;1.83;;;4.30;99.90;;;;;;4938905;29;20102;-77
2022/02/08 06:05:15;;;;;;;8.50;1.95;;;4.20;99.90;;;;;;4938408;29;20447;-77
2022/02/08 06:07:40;;;;;;;5.85;1.50;;;4.30;99.90;;;;;;4936167;29;20485;-77
2022/02/08 06:10:06;;;;;;;5.38;2.55;;;4.40;99.90;;;;;;4935993;29;20052;-76
2022/02/08 06:12:41;;;;;;;5.82;1.80;;;4.30;99.90;;;;;;4937233;29;20035;-78
2022/02/08 06:15:09;;;;;;;4.45;1.85;;;4.30;99.90;;;;;;4937473;29;20028;-76
2022/02/08 06:17:34;;;;;;;6.93;1.90;;;4.30;99.90;;;;;;4934695;29;20023;-77
2022/02/08 06:20:00;;;;;;;11.45;2.42;;;4.30;99.90;;;;;;4935040;29;20028;-75
2022/02/08 06:22:26;;;;;;;6.72;1.80;;;4.30;99.90;;;;;;4934358;29;20028;-77
2022/02/08 06:24:52;;;;;;;10.43;1.73;;;4.50;99.90;;;;;;4934975;29;20038;-77
2022/02/08 06:27:18;;;;;;;9.48;1.58;;;4.60;99.90;;;;;;4929323;29;20032;-77
2022/02/08 06:29:43;;;;;;;7.10;2.00;;;4.50;99.90;;;;;;4932473;29;20395;-76
2022/02/08 06:32:09;;;;;;;9.65;1.63;;;4.40;99.90;;;;;;4936193;29;20032;-77
2022/02/08 06:34:36;;;;;;;4.57;1.60;;;4.40;99.90;;;;;;4931200;29;20043;-75
2022/02/08 06:37:08;;;;;;;6.35;1.63;;;4.40;99.90;;;;;;4935421;29;20105;-76
2022/02/08 06:39:36;;;;;;;10.55;2.35;;;4.50;99.90;;;;;;4930393;29;20456;-77
2022/02/08 06:42:03;;;;;;;8.43;1.50;;;4.50;99.90;;;;;;4935585;29;20024;-77
2022/02/08 06:44:28;;;;;;;9.63;2.00;;;4.60;99.90;;;;;;4932766;29;20027;-78
2022/02/08 06:46:54;;;;;;;6.38;1.58;;;4.50;99.90;;;;;;4937685;29;20038;-78
2022/02/08 06:49:20;;;;;;;4.88;1.65;;;4.50;99.90;;;;;;4936037;29;20103;-77
2022/02/08 06:51:45;;;;;;;9.38;2.17;;;4.50;99.90;;;;;;4935493;29;20156;-76
2022/02/08 06:54:11;;;;;;;7.35;1.88;;;4.40;99.90;;;;;;4938765;29;20565;-75
2022/02/08 06:56:37;;;;;;;8.98;2.33;;;4.40;99.90;;;;;;4933885;29;20110;-75
2022/02/08 06:59:06;;;;;;;6.72;1.55;;;4.50;99.90;;;;;;4934193;29;20504;-77
2022/02/08 07:01:33;;;;;;;5.20;1.98;;;4.50;99.90;;;;;;4936382;29;20035;-78
2022/02/08 07:04:05;;;;;;;8.02;1.55;;;4.50;99.90;;;;;;4937501;29;20020;-78
2022/02/08 07:06:30;;;;;;;4.45;1.48;;;4.50;99.90;;;;;;4933878;29;20023;-76
2022/02/08 07:08:56;;;;;;;13.20;2.38;;;4.50;99.90;;;;;;4932582;29;20032;-77
2022/02/08 07:11:22;;;;;;;10.05;2.17;;;4.60;99.90;;;;;;4935329;29;20126;-76
2022/02/08 07:13:49;;;;;;;9.40;1.55;;;4.60;99.90;;;;;;4935025;29;20503;-77
2022/02/08 07:16:15;;;;;;;10.23;1.63;;;4.70;99.90;;;;;;4936354;29;20040;-75
2022/02/08 07:18:40;;;;;;;10.82;1.67;;;4.70;99.90;;;;;;4936383;29;20099;-76
2022/02/08 07:21:07;;;;;;;8.60;1.48;;;4.80;99.90;;;;;;4936653;29;20477;-77
2022/02/08 07:23:33;;;;;;;8.57;2.90;;;4.80;99.90;;;;;;4935123;29;20039;-76
2022/02/08 07:25:59;;;;;;;9.50;1.85;;;4.80;99.90;;;;;;4935663;29;20469;-77
2022/02/08 07:28:25;;;;;;;8.23;2.88;;;4.90;99.90;;;;;;4935841;29;20035;-76
2022/02/08 07:30:58;;;;;;;6.13;1.42;;;5.00;99.90;;;;;;4931933;29;20038;-78
2022/02/08 07:33:24;;;;;;;6.43;1.88;;;5.00;99.90;;;;;;4930148;29;20031;-76
2022/02/08 07:36:05;;;;;;;6.28;1.90;;;5.10;99.90;;;;;;4934771;29;20016;-76
2022/02/08 07:38:36;;;;;;;5.32;1.88;;;5.10;99.90;;;;;;4933123;29;20023;-76
2022/02/08 07:43:31;;;;;;;9.13;2.45;;;5.20;99.90;;;;;;4930784;29;20445;-75
2022/02/08 07:45:57;;;;;;;6.78;1.67;;;5.20;99.90;;;;;;4934608;29;20035;-74
2022/02/08 07:48:24;;;;;;;8.93;1.88;;;5.30;99.90;;;;;;4932268;29;20023;-77
2022/02/08 07:50:51;;;;;;;10.75;1.85;;;5.40;99.90;;;;;;4932302;29;20016;-76
2022/02/08 07:53:19;;;;;;;12.85;2.10;;;5.50;99.90;;;;;;4931047;29;20030;-77
2022/02/08 07:55:44;;;;;;;7.93;3.25;;;5.50;99.90;;;;;;4935135;29;20022;-76
2022/02/08 07:58:10;;;;;;;6.18;1.50;;;5.50;99.90;;;;;;4932796;29;20023;-78
2022/02/08 08:00:36;;;;;;;3.95;1.45;;;5.50;99.90;;;;;;4934521;29;20067;-76
2022/02/08 08:03:05;;;;;;;6.45;2.15;;;5.50;99.90;;;;;;4936250;29;20034;-76
2022/02/08 08:05:31;;;;;;;8.68;2.00;;;5.60;99.90;;;;;;4936742;29;20039;-77
2022/02/08 08:07:56;;;;;;;8.00;1.98;;;5.60;99.90;;;;;;4935586;29;20027;-77
2022/02/08 08:10:27;;;;;;;5.60;2.10;;;5.70;99.90;;;;;;4933656;29;20102;-76
2022/02/08 08:12:54;;;;;;;6.00;1.52;;;5.80;99.90;;;;;;4935050;29;20522;-76
2022/02/08 08:17:56;;;;;;;6.10;1.80;;;6.00;99.90;;;;;;4933573;29;20020;-76
2022/02/08 08:20:22;;;;;;;5.45;2.03;;;6.00;99.90;;;;;;4934583;29;20039;-76
2022/02/08 08:22:48;;;;;;;10.30;1.67;;;6.10;99.90;;;;;;4934553;29;20030;-75
2022/02/08 08:25:13;;;;;;;11.93;2.28;;;6.10;99.90;;;;;;4932010;29;20114;-77
2022/02/08 08:27:40;;;;;;;7.05;1.58;;;6.10;99.90;;;;;;4933117;29;20099;-76
2022/02/08 08:30:09;;;;;;;6.72;1.75;;;6.20;99.90;;;;;;4932913;29;20039;-76
2022/02/08 08:32:35;;;;;;;6.28;1.77;;;6.30;99.90;;;;;;4948928;28;20035;-77
2022/02/08 08:35:00;;;;;;;6.70;2.00;;;6.30;99.90;;;;;;4932067;29;20396;-76
2022/02/08 08:37:26;;;;;;;15.10;2.50;;;6.40;99.90;;;;;;4936476;29;20016;-76
2022/02/08 08:39:53;;;;;;;9.18;2.00;;;6.50;99.90;;;;;;4935048;29;20024;-78
2022/02/08 08:42:31;;;;;;;9.88;2.10;;;6.60;99.90;;;;;;4933652;29;20023;-76
2022/02/08 08:48:23;;;;;;;9.85;2.40;;;6.60;99.90;;;;;;4930482;29;20424;-75
2022/02/08 08:50:45;;;;;;;6.88;2.47;;;6.50;99.90;;;;;;4934443;29;20039;-75
2022/02/08 08:53:10;;;;;;;7.80;1.95;;;6.40;99.90;;;;;;4930147;29;20103;-75
2022/02/08 08:55:36;;;;;;;3.58;1.15;;;6.40;99.90;;;;;;4933946;29;20155;-78
2022/02/08 08:58:02;;;;;;;9.27;2.67;;;6.30;99.90;;;;;;4932751;29;20508;-75
2022/02/08 09:00:27;;;;;;;5.85;1.60;;;6.30;99.90;;;;;;4933436;29;20503;-76
2022/02/08 09:02:53;;;;;;;10.02;1.75;;;6.40;99.90;;;;;;4933790;29;20027;-76
2022/02/08 09:05:20;;;;;;;8.93;2.35;;;6.40;99.90;;;;;;4932156;29;20030;-75
2022/02/08 09:07:46;;;;;;;4.50;1.35;;;6.60;99.90;;;;;;4933636;29;20020;-76
2022/02/08 09:10:16;;;;;;;8.63;2.65;;;6.70;99.90;;;;;;4935406;29;20028;-76
2022/02/08 09:30:42;;;;;;;6.50;1.50;;;7.20;99.90;;;;;;4933208;29;20455;-76
2022/02/08 09:33:08;;;;;;;7.25;2.03;;;7.30;99.90;;;;;;4934162;29;20056;-76
2022/02/08 09:35:33;;;;;;;7.43;2.58;;;7.40;99.90;;;;;;4933166;29;20433;-76
2022/02/08 09:41:23;;;;;;;6.72;1.70;;;7.60;99.90;;;;;;4930990;29;20551;-76
2022/02/08 09:43:50;;;;;;;9.63;1.70;;;7.70;99.90;;;;;;4929242;29;20039;-76
2022/02/08 09:46:17;;;;;;;9.88;2.50;;;7.70;99.90;;;;;;4933310;29;20046;-75
2022/02/08 09:48:53;;;;;;;8.35;2.15;;;7.90;99.90;;;;;;4932621;29;20389;-76
2022/02/08 09:51:18;;;;;;;5.72;1.75;;;7.80;99.90;;;;;;4928258;29;20024;-76
2022/02/08 09:53:45;;;;;;;4.60;2.50;;;7.80;99.90;;;;;;4932611;29;20507;-76
2022/02/08 09:56:12;;;;;;;7.45;2.17;;;8.00;99.90;;;;;;4933396;29;20027;-78
2022/02/08 09:58:39;;;;;;;5.68;1.75;;;8.20;99.90;;;;;;4930101;29;20050;-77
2022/02/08 10:01:14;;;;;;;10.07;1.73;;;8.20;99.90;;;;;;4923298;29;20024;-75
2022/02/08 10:04:15;;;;;;;5.22;1.40;;;8.20;99.90;;;;;;4930816;29;20050;-77
2022/02/08 10:06:41;;;;;;;6.18;1.65;;;8.40;99.90;;;;;;4923533;29;20061;-73
2022/02/08 10:09:10;;;;;;;6.65;1.80;;;8.50;99.90;;;;;;4930359;29;20505;-75
2022/02/08 10:11:47;;;;;;;7.80;1.30;;;8.50;99.90;;;;;;4931512;29;20119;-75
2022/02/08 10:20:13;;;;;;;6.35;2.20;;;8.70;99.90;;;;;;4935711;29;20051;-75
2022/02/08 10:22:32;;;;;;;9.13;1.77;;;8.50;99.90;;;;;;4935829;29;20023;-75
2022/02/08 10:25:05;;;;;;;4.15;1.60;;;8.60;99.90;;;;;;4937088;29;20105;-75
2022/02/08 10:40:19;;;;;;;7.43;1.20;;;9.50;99.90;;;;;;4936247;29;20028;-75
2022/02/08 10:42:55;;;;;;;7.15;1.70;;;9.40;99.90;;;;;;4932942;29;20027;-76
2022/02/08 10:45:28;;;;;;;3.78;1.10;;;9.30;99.90;;;;;;4935204;29;20365;-78
2022/02/08 10:48:03;;;;;;;6.78;1.88;;;9.20;99.90;;;;;;4933141;29;20043;-75
2022/02/08 10:50:32;;;;;;;5.95;1.98;;;9.30;99.90;;;;;;4934890;29;20512;-76
2022/02/08 10:53:00;;;;;;;6.13;1.55;;;9.30;99.90;;;;;;4927428;29;20043;-76
2022/02/08 10:55:41;;;;;;;8.18;2.13;;;9.20;99.90;;;;;;4936105;29;20484;-76
2022/02/08 11:00:46;;;;;;;5.60;1.60;;;9.10;99.90;;;;;;4936256;29;20056;-75
2022/02/08 11:03:21;;;;;;;3.75;1.20;;;9.20;99.90;;;;;;4931569;29;20507;-75
2022/02/08 11:09:07;;;;;;;5.57;2.10;;;9.30;99.90;;;;;;4936102;29;20119;-77
2022/02/08 11:14:33;;;;;;;6.32;1.52;;;10.20;99.90;;;;;;4936111;29;20028;-75
2022/02/08 11:22:48;;;;;;;4.22;1.08;;;10.40;99.90;;;;;;4936169;29;20075;-76
2022/02/08 11:26:03;;;;;;;3.88;1.45;;;10.50;99.90;;;;;;4935042;29;20042;-75
2022/02/08 11:28:34;;;;;;;2.33;0.70;;;10.50;99.90;;;;;;4929052;29;20082;-75
2022/02/08 11:33:50;;;;;;;3.45;1.13;;;10.60;99.90;;;;;;4929736;29;20143;-77
2022/02/08 11:47:49;;;;;;;4.07;0.90;;;10.90;99.90;;;;;;4923020;29;20441;-74
2022/02/08 11:53:30;;;;;;;8.00;1.10;;;11.20;99.90;;;;;;4931200;29;20511;-74
2022/02/08 11:58:34;;;;;;;4.38;1.08;;;11.50;99.90;;;;;;4927077;29;20032;-75
2022/02/08 12:01:07;;;;;;;2.25;0.50;;;11.60;99.90;;;;;;4933143;29;20027;-77
2022/02/08 12:06:29;;;;;;;4.25;1.55;;;11.50;99.90;;;;;;4934197;29;20028;-75
2022/02/08 12:08:59;;;;;;;2.97;0.98;;;11.50;99.90;;;;;;4932330;29;20023;-75
2022/02/08 12:11:59;;;;;;;4.00;1.13;;;11.40;99.90;;;;;;4933785;29;20031;-75
2022/02/08 12:33:32;;;;;;;2.45;0.80;;;11.70;99.90;;;;;;4932826;29;20032;-76
2022/02/08 12:36:27;;;;;;;2.80;0.88;;;12.10;99.90;;;;;;4934365;29;20031;-76
2022/02/08 14:01:56;;;;;;;2.20;0.77;;;10.80;99.90;;;;;;4939181;29;20149;-75
2022/02/08 14:07:11;;;;;;;2.75;0.95;;;10.80;99.90;;;;;;4945677;29;20066;-76
2022/02/08 14:16:09;;;;;;;1.23;0.80;;;10.90;99.90;;;;;;4917735;29;21295;-75
2022/02/08 14:31:40;;;;;;;2.00;0.68;;;10.80;99.90;;;;;;4927476;29;20042;-75
2022/02/08 14:34:37;;;;;;;0.82;0.50;;;10.70;99.90;;;;;;4932066;29;20028;-77
2022/02/08 15:09:03;;;;;;;2.00;0.75;;;10.20;99.90;;;;;;4944136;29;20048;-81
2022/02/08 15:11:43;;;;;;;1.65;0.80;;;10.20;99.90;;;;;;4935549;29;20058;-80
2022/02/08 15:14:09;;;;;;;2.53;1.10;;;10.20;99.90;;;;;;4931443;29;20028;-75
2022/02/08 15:16:36;;;;;;;3.03;1.05;;;10.20;99.90;;;;;;4934712;29;20283;-76
2022/02/08 15:19:02;;;;;;;2.47;0.93;;;10.20;99.90;;;;;;4934197;29;20024;-76
2022/02/08 15:21:34;;;;;;;1.63;0.60;;;10.10;99.90;;;;;;4933259;29;20473;-76
2022/02/08 15:24:03;;;;;;;2.25;0.60;;;10.10;99.90;;;;;;4934063;29;20087;-77
2022/02/08 15:26:29;;;;;;;5.30;1.27;;;10.00;99.90;;;;;;4934641;29;20634;-76
2022/02/08 15:28:55;;;;;;;3.67;1.25;;;10.00;99.90;;;;;;4935938;29;20611;-77
2022/02/08 15:31:21;;;;;;;5.82;1.45;;;10.00;99.90;;;;;;4932026;29;20031;-77
2022/02/08 15:33:47;;;;;;;2.65;0.60;;;10.00;99.90;;;;;;4933052;29;20087;-78
2022/02/08 15:36:16;;;;;;;2.13;0.73;;;10.00;99.90;;;;;;4936393;29;20035;-77
2022/02/08 15:38:47;;;;;;;1.92;0.95;;;9.90;99.90;;;;;;4940990;29;20385;-77
2022/02/08 15:41:13;;;;;;;2.88;0.77;;;9.90;99.90;;;;;;4936538;29;20099;-77
2022/02/08 15:43:39;;;;;;;4.55;0.80;;;10.00;99.90;;;;;;4932635;29;20023;-76
2022/02/08 15:46:20;;;;;;;3.38;2.00;;;9.90;99.90;;;;;;4935706;29;20480;-77
2022/02/08 15:48:49;;;;;;;4.90;1.70;;;9.80;99.90;;;;;;4936009;29;20091;-76
2022/02/08 16:01:14;;;;;;;2.72;0.98;;;9.40;99.90;;;;;;4931337;29;20103;-75
2022/02/08 16:17:17;;;;;;;24.92;13.05;;;9.10;99.90;;;;;;4932655;29;20035;-76
2022/02/08 16:24:59;;;;;;;4.15;1.05;;;9.10;99.90;;;;;;4942608;29;20579;-76
2022/02/08 16:27:49;;;;;;;3.40;1.40;;;9.10;99.90;;;;;;4930875;29;20526;-76
2022/02/08 16:49:40;;;;;;;4.22;1.73;;;9.00;99.90;;;;;;4927456;29;20098;-76
2022/02/08 16:59:57;;;;;;;5.80;0.90;;;9.00;99.90;;;;;;4932000;29;20074;-76
2022/02/08 17:02:26;;;;;;;1.63;1.00;;;9.00;99.90;;;;;;4930767;29;20508;-74
2022/02/08 17:04:52;;;;;;;2.25;0.85;;;9.00;99.90;;;;;;4932872;29;20032;-74
2022/02/08 17:07:17;;;;;;;2.25;1.08;;;9.00;99.90;;;;;;4926710;29;20397;-74
2022/02/08 17:09:57;;;;;;;1.60;0.70;;;8.90;99.90;;;;;;4934190;29;20019;-73
2022/02/08 17:47:20;;;;;;;5.00;1.35;;;9.00;99.90;;;;;;4936140;29;20047;-76
2022/02/08 17:49:46;;;;;;;4.60;2.20;;;9.00;99.90;;;;;;4934518;29;20765;-73
2022/02/08 17:52:12;;;;;;;1.60;1.23;;;8.90;99.90;;;;;;4935833;29;20046;-81
2022/02/08 17:54:37;;;;;;;5.65;2.00;;;8.90;99.90;;;;;;4936080;29;20408;-74
2022/02/08 17:57:04;;;;;;;5.60;1.60;;;8.90;99.90;;;;;;4933606;29;20119;-76
2022/02/08 17:59:30;;;;;;;3.50;1.50;;;8.90;99.90;;;;;;4934654;29;20038;-75
2022/02/08 18:01:55;;;;;;;3.45;1.35;;;8.90;99.90;;;;;;4935930;29;20037;-75
2022/02/08 18:04:21;;;;;;;5.65;1.48;;;8.90;99.90;;;;;;4937058;29;20159;-76
2022/02/08 18:06:47;;;;;;;1.98;1.00;;;8.90;99.90;;;;;;4935858;29;20509;-74
2022/02/08 18:09:14;;;;;;;4.97;1.00;;;9.00;99.90;;;;;;4935493;29;20028;-75
2022/02/08 18:11:42;;;;;;;3.38;1.40;;;8.90;99.90;;;;;;4936275;29;20032;-74
2022/02/08 18:14:09;;;;;;;3.85;1.02;;;8.90;99.90;;;;;;4930051;29;20513;-74
2022/02/08 18:16:36;;;;;;;5.80;1.38;;;8.90;99.90;;;;;;4934790;29;20028;-75
2022/02/08 18:19:10;;;;;;;2.78;1.60;;;8.90;99.90;;;;;;4935669;29;20027;-74
2022/02/08 18:21:45;;;;;;;4.53;1.35;;;8.90;99.90;;;;;;4935925;29;20031;-74
2022/02/08 18:24:48;;;;;;;5.65;1.95;;;8.90;99.90;;;;;;4936739;29;20618;-73
2022/02/08 19:08:34;;;;;;;5.75;1.58;;;8.90;99.90;;;;;;4933896;29;20082;-74
2022/02/08 19:16:16;;;;;;;6.20;2.55;;;8.90;99.90;;;;;;4930654;29;20028;-75
2022/02/08 19:23:37;;;;;;;5.45;2.15;;;8.80;99.90;;;;;;4929001;29;20111;-75
2022/02/08 19:26:05;;;;;;;6.00;2.72;;;8.80;99.90;;;;;;4936629;29;20028;-74
2022/02/08 19:28:31;;;;;;;7.32;2.60;;;8.80;99.90;;;;;;4933642;29;20024;-73
2022/02/08 19:30:57;;;;;;;5.05;2.75;;;8.70;99.90;;;;;;4925696;29;20036;-73
2022/02/08 19:33:25;;;;;;;3.65;2.13;;;8.70;99.90;;;;;;4933921;29;20028;-75
2022/02/08 19:35:51;;;;;;;6.93;2.80;;;8.70;99.90;;;;;;4934925;29;20024;-74
2022/02/08 19:38:18;;;;;;;5.05;2.50;;;8.70;99.90;;;;;;4927910;29;20095;-74
2022/02/08 19:40:44;;;;;;;5.20;2.65;;;8.70;99.90;;;;;;4927469;29;20024;-74
2022/02/08 19:43:09;;;;;;;6.00;2.08;;;8.70;99.90;;;;;;4926669;29;20480;-74
2022/02/08 19:45:41;;;;;;;4.82;2.20;;;8.70;99.90;;;;;;4926359;29;20112;-74
2022/02/08 19:48:08;;;;;;;5.68;2.10;;;8.60;99.90;;;;;;4933060;29;20028;-73
2022/02/08 19:50:36;;;;;;;10.50;2.35;;;8.60;99.90;;;;;;4930731;29;20113;-75
2022/02/08 19:53:07;;;;;;;9.65;3.00;;;8.50;99.90;;;;;;4934075;29;20080;-76
2022/02/08 19:58:11;;;;;;;9.15;2.75;;;8.40;99.90;;;;;;4935544;29;20102;-74
2022/02/08 20:00:38;;;;;;;7.78;2.58;;;8.40;99.90;;;;;;4933761;29;20119;-75
2022/02/08 20:03:06;;;;;;;7.88;3.85;;;8.30;99.90;;;;;;4935699;29;20114;-75
2022/02/08 20:05:33;;;;;;;5.25;2.80;;;8.30;99.90;;;;;;4933238;29;20054;-74
2022/02/08 20:08:00;;;;;;;4.68;2.72;;;8.30;99.90;;;;;;4927254;29;20389;-74
2022/02/08 20:10:26;;;;;;;10.00;3.55;;;8.30;99.90;;;;;;4931524;29;20035;-74
2022/02/08 20:12:54;;;;;;;5.63;2.85;;;8.20;99.90;;;;;;4934203;29;20293;-73
2022/02/08 20:15:20;;;;;;;7.47;2.88;;;8.20;99.90;;;;;;4931908;29;20548;-73
2022/02/08 20:17:50;;;;;;;5.68;2.55;;;8.20;99.90;;;;;;4934413;29;20020;-76
2022/02/08 20:20:16;;;;;;;7.35;3.58;;;8.20;99.90;;;;;;4935110;29;20507;-76
2022/02/08 20:22:47;;;;;;;6.00;3.25;;;8.20;99.90;;;;;;4927283;29;20106;-74
2022/02/08 20:25:14;;;;;;;;;;;8.20;99.90;;;;;;4928780;29;20031;-76
2022/02/08 20:27:50;;;;;;;6.68;2.70;;;8.20;99.90;;;;;;4931896;29;19917;-75
2022/02/08 20:30:22;;;;;;;12.70;3.25;;;8.20;99.90;;;;;;4922748;29;20028;-75
2022/02/08 20:32:48;;;;;;;9.77;3.67;;;8.20;99.90;;;;;;4933490;29;20118;-74
2022/02/08 20:35:14;;;;;;;10.05;3.47;;;8.20;99.90;;;;;;4928679;29;20032;-76
2022/02/08 20:37:41;;;;;;;7.95;3.65;;;8.20;99.90;;;;;;4933241;29;20398;-73
2022/02/08 20:40:08;;;;;;;11.13;4.05;;;8.20;99.90;;;;;;4929347;29;20067;-74
2022/02/08 20:42:34;;;;;;;9.23;4.03;;;8.20;99.90;;;;;;4936758;29;20543;-75
2022/02/08 20:45:00;;;;;;;9.93;3.88;;;8.20;99.90;;;;;;4929586;29;20068;-76
2022/02/08 20:47:27;;;;;;;8.10;3.33;;;8.10;99.90;;;;;;4924429;29;20024;-75
2022/02/08 20:50:10;;;;;;;5.82;3.75;;;8.20;99.90;;;;;;4932476;29;20043;-74
2022/02/08 20:52:45;;;;;;;8.98;3.60;;;8.20;99.90;;;;;;4934213;29;20567;-75
2022/02/08 20:55:12;;;;;;;11.00;4.60;;;8.10;99.90;;;;;;4933297;29;20111;-76
2022/02/08 20:57:39;;;;;;;9.88;3.78;;;8.10;99.90;;;;;;4926780;29;20481;-74
2022/02/08 21:00:09;;;;;;;9.38;4.28;;;8.10;99.90;;;;;;4932948;29;20953;-74
2022/02/08 21:02:42;;;;;;;11.23;4.38;;;8.10;99.90;;;;;;4928338;29;20028;-74
2022/02/08 21:07:52;;;;;;;10.18;3.72;;;8.00;99.90;;;;;;4923372;29;20028;-74
2022/02/08 21:10:18;;;;;;;12.48;4.65;;;8.00;99.90;;;;;;4924328;29;20042;-74
2022/02/08 21:13:13;;;;;;;8.68;4.18;;;8.00;99.90;;;;;;4933680;29;20031;-72
2022/02/08 21:15:39;;;;;;;9.98;4.75;;;8.00;99.90;;;;;;4930592;29;20019;-74
2022/02/08 21:18:05;;;;;;;6.35;3.55;;;8.00;99.90;;;;;;4933864;29;20406;-73